Accueil
METAR-TAF:

METAR-TAF

Aéroports :

Aéroport de Toussus-le-Noble

Toussus-le-Noble, France

latitude: 48-46N, longitude: 002-06E, altitude: 164 m

Observation

Le bulletin a été fait il y a 35 minutes, à 16:00 UTC
Vent 2 kt de nord-ouest
Température 2°C
Humidité 64%
Pression 1021 hPa
Visibilité: 9000 m

METAR: LFPN 211600Z AUTO 32002KT 9000 NSC 02/M04 Q1021 NOSIG

Heure: 17:35 (16:35 UTC)

Prévision

Le bulletin a été fait il y a 2 heures et 35 minutes, à 14:00 UTC
Prévision valable du 21 à 15 UTC au 21 à 24 UTC
Vent 3 kt de direction variable
Visibilité 10 km ou plus
pas de nuages en-dessous de 1500 mètres et pas de cumulonimbus.
Evoluant progressivement
du 21 à 22 UTC au 21 à 24 UTC
Vent 10 kt de sud

TAF: LFPN 211400Z 2115/2124 VRB03KT CAVOK BECMG 2122/2124 18010KT

Observations et prévisions météorologiques de plus de 4000 aéroports (messages METAR et TAF).

Les stations disponibles sont représentées par des disques jaunes et rouges sur la carte.

Passer la souris dessus pour voir le nom de la station.

Cliquer dessus pour voir les observations et prévisions météorologiques.

Pour changer de carte: cliquez sur les boutons verts avec une croix noire pour zoomer, sur le bouton vert avec un tiret pour effectuer un zoom arrière, ou sur les flèches vertes pour les cartes adjacentes.


METAR-TAF: